createdAt,value
2018-07-20T00:00:24.316Z,74.40
2018-07-20T00:02:52.484Z,74.20
2018-07-20T00:05:20.686Z,74.30
2018-07-20T00:07:49.356Z,73.80
2018-07-20T00:10:17.559Z,73.90
2018-07-20T00:12:45.693Z,74.20
2018-07-20T00:15:13.888Z,74.60
2018-07-20T00:17:42.109Z,74.80
2018-07-20T00:20:10.252Z,74.60
2018-07-20T00:22:38.352Z,74.90
2018-07-20T00:25:06.455Z,75.50
2018-07-20T00:27:34.663Z,75.80
2018-07-20T00:30:02.777Z,75.80
2018-07-20T00:32:30.939Z,76.10
2018-07-20T00:34:59.035Z,76.00
2018-07-20T00:37:27.116Z,75.10
2018-07-20T00:39:55.255Z,75.00
2018-07-20T00:42:23.333Z,75.60
2018-07-20T00:44:51.437Z,75.10
2018-07-20T00:47:19.571Z,75.00
2018-07-20T00:49:47.688Z,74.90
2018-07-20T00:52:15.812Z,74.90
2018-07-20T00:57:18.533Z,74.80
2018-07-20T00:59:46.680Z,74.90
2018-07-20T01:02:14.759Z,75.30
2018-07-20T01:04:42.893Z,75.70
2018-07-20T01:07:11.047Z,75.80
2018-07-20T01:09:39.199Z,76.40
2018-07-20T01:12:07.424Z,76.60
2018-07-20T01:14:35.536Z,76.60
2018-07-20T01:17:03.635Z,77.10
2018-07-20T01:19:31.759Z,77.40
2018-07-20T01:21:59.910Z,77.00
2018-07-20T01:24:29.128Z,77.20
2018-07-20T01:26:57.221Z,77.60
2018-07-20T01:29:25.319Z,77.70
2018-07-20T01:31:53.423Z,78.10
2018-07-20T01:34:21.536Z,78.50
2018-07-20T01:36:49.698Z,79.20
2018-07-20T01:39:17.779Z,79.10
2018-07-20T01:41:45.875Z,79.40
2018-07-20T01:44:13.999Z,79.30
2018-07-20T01:46:42.102Z,80.50
2018-07-20T01:49:10.212Z,80.40
2018-07-20T01:51:38.315Z,80.10
2018-07-20T01:54:06.479Z,80.20
2018-07-20T01:56:34.655Z,80.20
2018-07-20T01:59:02.756Z,80.20
2018-07-20T02:01:30.903Z,80.30
2018-07-20T02:03:59.016Z,80.60
2018-07-20T02:06:27.268Z,80.80
2018-07-20T02:08:55.396Z,81.10
2018-07-20T02:11:23.494Z,81.00
2018-07-20T02:13:51.583Z,81.30
2018-07-20T02:16:19.678Z,81.40
2018-07-20T02:18:47.783Z,81.90
2018-07-20T02:21:15.892Z,82.10
2018-07-20T02:23:44.012Z,82.10
2018-07-20T02:26:12.116Z,82.20
2018-07-20T02:28:40.213Z,82.20
2018-07-20T02:31:08.328Z,81.10
2018-07-20T02:33:36.619Z,81.10
2018-07-20T02:36:04.763Z,81.30
2018-07-20T02:38:32.896Z,81.60
2018-07-20T02:41:01.055Z,81.50
2018-07-20T02:43:29.139Z,81.10
2018-07-20T02:45:57.441Z,81.60
2018-07-20T02:48:25.538Z,81.90
2018-07-20T02:50:53.644Z,81.30
2018-07-20T02:53:21.823Z,81.30
2018-07-20T02:55:49.902Z,81.40
2018-07-20T02:58:18.101Z,81.20
2018-07-20T03:00:46.273Z,80.90
2018-07-20T03:03:14.368Z,80.80
2018-07-20T03:05:42.484Z,81.00
2018-07-20T03:08:10.603Z,81.20
2018-07-20T03:10:38.700Z,81.20
2018-07-20T03:13:06.971Z,80.90
2018-07-20T03:15:35.212Z,80.80
2018-07-20T03:18:03.339Z,80.80
2018-07-20T03:20:31.476Z,81.80
2018-07-20T03:22:59.579Z,81.50
2018-07-20T03:25:27.675Z,81.20
2018-07-20T03:27:55.819Z,81.60
2018-07-20T03:30:24.118Z,81.40
2018-07-20T03:32:52.420Z,81.90
2018-07-20T03:35:20.455Z,82.30
2018-07-20T03:37:48.659Z,82.30
2018-07-20T03:40:16.768Z,81.20
2018-07-20T03:42:44.859Z,80.60
2018-07-20T03:45:13.036Z,80.10
2018-07-20T03:47:41.147Z,80.00
2018-07-20T03:50:09.304Z,79.60
2018-07-20T03:52:37.394Z,80.10
2018-07-20T03:55:05.591Z,80.30
2018-07-20T03:57:33.711Z,80.20
2018-07-20T04:00:01.779Z,80.30
2018-07-20T04:02:29.933Z,80.20
2018-07-20T04:04:58.231Z,78.60
2018-07-20T04:07:26.354Z,77.80
2018-07-20T04:09:54.456Z,78.10
2018-07-20T04:12:22.543Z,77.70
2018-07-20T04:14:50.651Z,77.30
2018-07-20T04:17:18.779Z,76.50
2018-07-20T04:19:46.928Z,76.80
2018-07-20T04:22:15.020Z,76.90
2018-07-20T04:24:43.188Z,76.70
2018-07-20T04:27:11.280Z,77.50
2018-07-20T04:29:39.451Z,76.10
2018-07-20T04:32:07.599Z,75.10
2018-07-20T04:34:35.787Z,74.20
2018-07-20T04:37:03.975Z,73.70
2018-07-20T04:39:32.103Z,71.80
2018-07-20T04:42:00.267Z,72.00
2018-07-20T04:44:28.373Z,71.50
2018-07-20T04:46:56.477Z,71.10
2018-07-20T04:49:24.616Z,71.60
2018-07-20T04:51:52.721Z,71.00
2018-07-20T04:54:20.864Z,70.00
2018-07-20T04:56:49.083Z,71.10
2018-07-20T04:59:17.359Z,68.40
2018-07-20T05:01:45.485Z,65.80
2018-07-20T05:04:13.620Z,65.50
2018-07-20T05:06:41.741Z,64.20
2018-07-20T05:09:10.430Z,62.90
2018-07-20T05:11:39.239Z,62.70
2018-07-20T05:14:07.387Z,61.90
2018-07-20T05:16:35.673Z,61.20
2018-07-20T05:19:03.911Z,60.30
2018-07-20T05:21:32.083Z,59.50
2018-07-20T05:24:00.230Z,60.40
2018-07-20T05:26:28.265Z,59.90
2018-07-20T05:28:56.335Z,58.80
2018-07-20T05:31:24.378Z,58.30
2018-07-20T05:33:52.455Z,57.20
2018-07-20T05:36:20.579Z,56.50
2018-07-20T05:38:48.703Z,55.40
2018-07-20T05:41:16.759Z,54.40
2018-07-20T05:43:45.019Z,52.60
2018-07-20T05:46:13.099Z,51.20
2018-07-20T05:48:41.183Z,50.30
2018-07-20T05:51:09.400Z,51.90
2018-07-20T05:53:37.511Z,51.90
2018-07-20T05:56:05.752Z,50.40
2018-07-20T05:58:34.002Z,48.80
2018-07-20T06:01:02.132Z,43.80
2018-07-20T06:03:30.473Z,43.00
2018-07-20T06:05:59.056Z,42.80
2018-07-20T06:08:27.161Z,41.40
2018-07-20T06:10:55.340Z,37.60
2018-07-20T06:13:23.416Z,36.90
2018-07-20T06:15:51.648Z,38.70
2018-07-20T06:18:19.734Z,36.60
2018-07-20T06:20:47.827Z,35.20
2018-07-20T06:23:15.933Z,33.70
2018-07-20T06:25:44.043Z,33.60
2018-07-20T06:28:12.117Z,32.40
2018-07-20T06:30:40.255Z,30.90
2018-07-20T06:33:08.325Z,28.60
2018-07-20T06:35:36.415Z,27.20
2018-07-20T06:38:04.896Z,27.20
2018-07-20T06:40:33.063Z,28.20
2018-07-20T06:43:01.227Z,25.30
2018-07-20T06:45:29.303Z,24.10
2018-07-20T06:47:57.395Z,21.30
2018-07-20T06:50:25.531Z,19.30
2018-07-20T06:52:53.600Z,17.80
2018-07-20T06:55:21.680Z,14.00
2018-07-20T06:57:49.765Z,13.50
2018-07-20T07:00:17.831Z,12.60
2018-07-20T07:02:45.942Z,11.90
2018-07-20T07:05:14.040Z,10.60
2018-07-20T07:07:42.147Z,9.40
2018-07-20T07:10:10.327Z,9.20
2018-07-20T07:12:38.493Z,8.50
2018-07-20T07:15:06.704Z,7.80
2018-07-20T07:17:34.695Z,9.00
2018-07-20T07:20:02.759Z,7.50
2018-07-20T07:22:31.017Z,6.70
2018-07-20T07:24:59.088Z,5.80
2018-07-20T07:27:27.249Z,5.60
2018-07-20T07:29:55.315Z,4.60
2018-07-20T07:32:23.395Z,3.40
2018-07-20T07:34:52.370Z,4.30
2018-07-20T07:37:20.436Z,3.80
2018-07-20T07:39:48.596Z,5.20
2018-07-20T07:42:16.757Z,3.10
2018-07-20T07:44:44.739Z,3.20
2018-07-20T07:47:12.803Z,3.70
2018-07-20T07:49:40.879Z,1.90
2018-07-20T07:52:08.963Z,2.70
2018-07-20T07:54:37.099Z,1.00
2018-07-20T07:57:05.312Z,1.00
2018-07-20T07:59:33.371Z,1.00
2018-07-20T08:02:01.483Z,1.00
2018-07-20T08:04:29.625Z,1.00
2018-07-20T08:06:57.712Z,1.00
2018-07-20T08:09:25.799Z,1.00
2018-07-20T08:12:00.616Z,1.00
2018-07-20T08:14:28.751Z,1.00
2018-07-20T08:16:56.863Z,1.00
2018-07-20T08:19:24.934Z,1.00
2018-07-20T08:21:53.021Z,1.00
2018-07-20T08:24:21.079Z,1.00
2018-07-20T08:26:49.147Z,1.00
2018-07-20T08:29:17.240Z,1.00
2018-07-20T08:31:45.325Z,1.00
2018-07-20T08:34:15.323Z,1.00
2018-07-20T08:36:43.419Z,1.00
2018-07-20T08:39:11.513Z,1.00
2018-07-20T08:41:39.676Z,1.00
2018-07-20T08:44:07.834Z,1.00
2018-07-20T08:46:35.965Z,1.00
2018-07-20T08:49:04.015Z,1.00
2018-07-20T08:51:32.131Z,1.00
2018-07-20T08:54:00.324Z,1.00
2018-07-20T08:56:28.347Z,1.00
2018-07-20T08:58:56.442Z,1.00
2018-07-20T09:01:24.531Z,1.00
2018-07-20T09:03:52.624Z,1.00
2018-07-20T09:06:20.750Z,1.00
2018-07-20T09:08:48.819Z,1.00
2018-07-20T09:11:16.957Z,1.00
2018-07-20T09:13:45.243Z,1.00
2018-07-20T09:16:13.134Z,1.00
2018-07-20T09:18:41.433Z,1.00
2018-07-20T09:21:09.694Z,1.00
2018-07-20T09:23:37.776Z,1.00
2018-07-20T09:26:05.891Z,1.00
2018-07-20T09:28:33.987Z,1.00
2018-07-20T09:31:02.058Z,1.00
2018-07-20T09:33:30.160Z,1.00
2018-07-20T09:35:58.242Z,1.00
2018-07-20T09:38:26.403Z,1.00
2018-07-20T09:40:54.479Z,1.00
2018-07-20T09:43:22.603Z,1.00
2018-07-20T09:45:51.003Z,1.00
2018-07-20T09:48:19.099Z,1.00
2018-07-20T09:50:47.148Z,1.00
2018-07-20T09:53:15.204Z,1.00
2018-07-20T09:55:43.301Z,1.00
2018-07-20T09:58:11.364Z,1.00
2018-07-20T10:00:44.883Z,1.00
2018-07-20T10:03:13.117Z,1.00
2018-07-20T10:05:41.184Z,1.00
2018-07-20T10:08:09.428Z,1.00
2018-07-20T10:10:37.525Z,1.00
2018-07-20T10:13:05.828Z,1.00
2018-07-20T10:15:33.931Z,1.00
2018-07-20T10:18:02.093Z,1.00
2018-07-20T10:20:30.368Z,1.00
2018-07-20T10:22:58.548Z,1.00
2018-07-20T10:25:26.716Z,1.00
2018-07-20T10:27:54.808Z,1.00
2018-07-20T10:30:23.037Z,1.00
2018-07-20T10:32:51.079Z,1.00
2018-07-20T10:35:19.750Z,1.00
2018-07-20T10:37:47.824Z,1.00
2018-07-20T10:40:15.913Z,1.00
2018-07-20T10:42:43.995Z,1.00
2018-07-20T10:45:15.478Z,1.00
2018-07-20T10:47:43.628Z,1.00
2018-07-20T10:50:13.291Z,1.00
2018-07-20T10:52:42.745Z,1.00
2018-07-20T10:55:11.636Z,1.00
2018-07-20T10:57:39.725Z,1.00
2018-07-20T11:00:08.819Z,1.00
2018-07-20T11:02:37.180Z,1.00
2018-07-20T11:05:05.276Z,1.00
2018-07-20T11:07:33.540Z,1.00
2018-07-20T11:10:01.653Z,1.00
2018-07-20T11:12:29.719Z,1.00
2018-07-20T11:14:57.794Z,1.00
2018-07-20T11:17:25.851Z,1.00
2018-07-20T11:19:53.915Z,1.00
2018-07-20T11:22:21.999Z,1.00
2018-07-20T11:24:50.156Z,1.00
2018-07-20T11:27:18.211Z,1.00
2018-07-20T11:29:46.307Z,1.00
2018-07-20T11:32:14.447Z,1.00
2018-07-20T11:34:42.537Z,1.00
2018-07-20T11:37:10.595Z,1.00
2018-07-20T11:39:38.787Z,1.00
2018-07-20T11:42:06.859Z,1.00
2018-07-20T11:44:34.929Z,1.00
2018-07-20T11:47:03.027Z,1.00
2018-07-20T11:49:31.091Z,1.00
2018-07-20T11:51:59.172Z,1.00
2018-07-20T11:54:27.238Z,1.00
2018-07-20T11:56:55.372Z,1.00
2018-07-20T11:59:23.641Z,1.00
2018-07-20T12:01:51.751Z,1.00
2018-07-20T12:04:19.806Z,1.00
2018-07-20T12:06:47.905Z,1.00
2018-07-20T12:09:16.001Z,1.00
2018-07-20T12:11:44.103Z,1.00
2018-07-20T12:14:12.174Z,1.00
2018-07-20T12:16:40.259Z,1.00
2018-07-20T12:19:08.417Z,1.00
2018-07-20T12:21:36.463Z,1.00
2018-07-20T12:24:04.552Z,1.00
2018-07-20T12:26:32.659Z,1.00
2018-07-20T12:29:00.712Z,1.00
2018-07-20T12:31:28.830Z,1.00
2018-07-20T12:33:56.909Z,1.00
2018-07-20T12:36:24.958Z,1.00
2018-07-20T12:38:53.194Z,1.00
2018-07-20T12:41:21.327Z,1.00
2018-07-20T12:43:49.402Z,1.00
2018-07-20T12:46:17.507Z,1.00
2018-07-20T12:48:45.710Z,1.00
2018-07-20T12:51:13.771Z,1.00
2018-07-20T12:53:41.848Z,1.00
2018-07-20T12:56:09.962Z,1.00
2018-07-20T12:58:38.408Z,1.00
2018-07-20T13:01:06.463Z,1.00
2018-07-20T13:03:34.635Z,1.00
2018-07-20T13:06:02.776Z,1.00
2018-07-20T13:08:31.347Z,1.00
2018-07-20T13:10:59.423Z,1.00
2018-07-20T13:13:27.520Z,1.00
2018-07-20T13:15:55.603Z,1.00
2018-07-20T13:18:23.804Z,1.00
2018-07-20T13:20:51.894Z,1.00
2018-07-20T13:23:19.980Z,1.00
2018-07-20T13:25:48.223Z,1.00
2018-07-20T13:28:16.275Z,1.00
2018-07-20T13:30:44.451Z,1.00
2018-07-20T13:33:12.518Z,1.00
2018-07-20T13:35:40.608Z,1.00
2018-07-20T13:38:09.071Z,1.00
2018-07-20T13:40:37.201Z,1.00
2018-07-20T13:43:05.278Z,1.00
2018-07-20T13:45:34.277Z,1.00
2018-07-20T13:48:02.567Z,1.00
2018-07-20T13:50:30.635Z,1.00
2018-07-20T13:52:58.845Z,1.00
2018-07-20T13:55:27.380Z,1.00
2018-07-20T13:57:55.463Z,1.00
2018-07-20T14:00:26.569Z,1.00
2018-07-20T14:02:54.643Z,1.00
2018-07-20T14:05:22.740Z,1.00
2018-07-20T14:07:51.614Z,1.00
2018-07-20T14:10:19.825Z,1.00
2018-07-20T14:12:47.947Z,1.00
2018-07-20T14:15:16.003Z,1.00
2018-07-20T14:17:44.102Z,1.00
2018-07-20T14:20:12.225Z,1.00
2018-07-20T14:22:40.263Z,1.00
2018-07-20T14:25:08.436Z,1.00
2018-07-20T14:27:39.356Z,1.00
2018-07-20T14:30:10.391Z,1.00
2018-07-20T14:32:38.667Z,1.00
2018-07-20T14:35:06.740Z,1.00
2018-07-20T14:37:34.811Z,1.00
2018-07-20T14:40:03.075Z,1.00
2018-07-20T14:42:31.308Z,1.00
2018-07-20T14:44:59.949Z,1.00
2018-07-20T14:47:28.198Z,1.00
2018-07-20T14:49:56.295Z,1.00
2018-07-20T14:52:24.563Z,1.00
2018-07-20T14:54:52.700Z,1.00
2018-07-20T14:57:20.839Z,1.00
2018-07-20T14:59:54.472Z,1.00
2018-07-20T15:02:26.533Z,1.00
2018-07-20T15:04:54.846Z,1.00
2018-07-20T15:07:22.914Z,1.00
2018-07-20T15:09:51.006Z,1.00
2018-07-20T15:12:19.130Z,1.00
2018-07-20T15:14:48.116Z,1.00
2018-07-20T15:17:16.243Z,1.00
2018-07-20T15:19:44.438Z,1.00
2018-07-20T15:22:16.297Z,1.00
2018-07-20T15:24:47.646Z,1.00
2018-07-20T15:27:15.882Z,1.00
2018-07-20T15:29:43.940Z,1.00
2018-07-20T15:32:12.001Z,1.00
2018-07-20T15:34:40.086Z,1.00
2018-07-20T15:37:08.357Z,1.00
2018-07-20T15:39:36.524Z,1.00
2018-07-20T15:42:04.583Z,1.00
2018-07-20T15:44:32.845Z,1.00
2018-07-20T15:47:01.261Z,1.00
2018-07-20T15:49:29.093Z,1.00
2018-07-20T15:53:35.607Z,1.00
2018-07-20T15:54:25.238Z,1.00
2018-07-20T15:56:53.311Z,1.00
2018-07-20T15:59:21.799Z,1.00
2018-07-20T16:01:49.878Z,1.00
2018-07-20T16:04:17.986Z,1.00
2018-07-20T16:06:46.426Z,1.00
2018-07-20T16:09:14.568Z,1.00
2018-07-20T16:14:10.615Z,1.00
2018-07-20T16:16:38.662Z,1.00
2018-07-20T16:19:07.384Z,1.00
2018-07-20T16:21:35.614Z,1.00
2018-07-20T16:24:04.491Z,1.00
2018-07-20T16:26:34.402Z,1.00
2018-07-20T16:29:02.857Z,1.00
2018-07-20T16:31:31.090Z,1.00
2018-07-20T16:34:00.013Z,1.00
2018-07-20T16:36:28.196Z,1.00
2018-07-20T16:38:56.307Z,1.00
2018-07-20T16:41:24.658Z,1.00
2018-07-20T16:43:52.739Z,1.00
2018-07-20T16:46:20.819Z,1.00
2018-07-20T16:48:48.952Z,1.00
2018-07-20T16:51:16.990Z,1.00
2018-07-20T16:53:45.070Z,1.00
2018-07-20T16:56:13.145Z,1.00
2018-07-20T16:58:41.242Z,1.00
2018-07-20T17:01:09.797Z,1.00
2018-07-20T17:03:37.880Z,1.00
2018-07-20T17:06:05.999Z,1.00
2018-07-20T17:08:34.565Z,1.00
2018-07-20T17:11:02.700Z,1.00
2018-07-20T17:13:30.826Z,1.00
2018-07-20T17:15:58.936Z,1.00
2018-07-20T17:18:26.986Z,1.00
2018-07-20T17:20:55.079Z,1.00
2018-07-20T17:23:23.223Z,1.00
2018-07-20T17:25:51.360Z,1.00
2018-07-20T17:28:19.456Z,1.00
2018-07-20T17:30:47.583Z,1.00
2018-07-20T17:33:15.737Z,1.00
2018-07-20T17:35:43.780Z,1.00
2018-07-20T17:38:11.854Z,1.00
2018-07-20T17:40:40.003Z,1.00
2018-07-20T17:43:08.076Z,1.00
2018-07-20T17:45:36.142Z,1.00
2018-07-20T17:48:04.187Z,1.00
2018-07-20T17:50:32.287Z,1.00
2018-07-20T17:53:02.988Z,1.00
2018-07-20T17:55:31.747Z,1.00
2018-07-20T17:57:59.830Z,1.00
2018-07-20T18:00:27.884Z,1.00
2018-07-20T18:02:55.995Z,1.00
2018-07-20T18:05:24.199Z,1.00
2018-07-20T18:07:52.342Z,1.00
2018-07-20T18:10:20.577Z,1.00
2018-07-20T18:12:48.756Z,1.00
2018-07-20T18:15:16.795Z,1.00
2018-07-20T18:17:44.906Z,1.00
2018-07-20T18:20:13.100Z,1.00
2018-07-20T18:22:41.155Z,1.00
2018-07-20T18:25:09.360Z,1.00
2018-07-20T18:27:37.427Z,1.00
2018-07-20T18:30:05.586Z,1.70
2018-07-20T18:32:33.727Z,2.40
2018-07-20T18:35:01.798Z,3.50
2018-07-20T18:37:29.896Z,3.80
2018-07-20T18:39:58.418Z,4.60
2018-07-20T18:42:26.613Z,5.20
2018-07-20T18:44:54.763Z,5.30
2018-07-20T18:47:22.854Z,6.10
2018-07-20T18:49:51.123Z,6.50
2018-07-20T18:52:19.218Z,6.50
2018-07-20T18:54:47.331Z,6.80
2018-07-20T18:57:15.568Z,7.40
2018-07-20T18:59:43.859Z,7.20
2018-07-20T19:02:11.978Z,7.50
2018-07-20T19:04:40.176Z,7.30
2018-07-20T19:07:08.407Z,7.50
2018-07-20T19:09:36.520Z,8.30
2018-07-20T19:12:04.812Z,8.40
2018-07-20T19:14:32.927Z,9.30
2018-07-20T19:17:01.665Z,8.90
2018-07-20T19:19:30.220Z,9.00
2018-07-20T19:21:58.567Z,9.50
2018-07-20T19:24:26.737Z,9.70
2018-07-20T19:26:55.703Z,9.20
2018-07-20T19:29:24.165Z,9.60
2018-07-20T19:31:52.362Z,9.40
2018-07-20T19:34:20.474Z,9.70
2018-07-20T19:36:48.594Z,9.80
2018-07-20T19:39:16.706Z,10.30
2018-07-20T19:41:44.791Z,10.90
2018-07-20T19:44:13.001Z,11.20
2018-07-20T19:46:41.063Z,11.40
2018-07-20T19:49:09.135Z,11.70
2018-07-20T19:51:37.231Z,12.10
2018-07-20T19:54:05.429Z,13.30
2018-07-20T19:56:33.640Z,13.70
2018-07-20T19:59:01.809Z,13.60
2018-07-20T20:01:29.871Z,13.30
2018-07-20T20:03:58.025Z,14.40
2018-07-20T20:06:26.191Z,15.20
2018-07-20T20:08:54.355Z,15.00
2018-07-20T20:11:22.591Z,14.50
2018-07-20T20:13:50.778Z,14.60
2018-07-20T20:16:19.195Z,15.70
2018-07-20T20:18:47.329Z,16.20
2018-07-20T20:21:15.415Z,16.80
2018-07-20T20:23:43.603Z,17.30
2018-07-20T20:26:13.463Z,17.30
2018-07-20T20:28:42.216Z,17.00
2018-07-20T20:31:10.412Z,17.60
2018-07-20T20:33:38.863Z,17.80
2018-07-20T20:36:06.930Z,18.30
2018-07-20T20:38:35.136Z,17.90
2018-07-20T20:41:03.447Z,19.00
2018-07-20T20:43:31.532Z,19.60
2018-07-20T20:45:59.615Z,19.40
2018-07-20T20:48:27.749Z,19.20
2018-07-20T20:50:56.000Z,19.80
2018-07-20T20:53:24.189Z,20.60
2018-07-20T20:55:52.421Z,20.50
2018-07-20T20:58:20.733Z,19.60
2018-07-20T21:00:49.275Z,20.90
2018-07-20T21:03:17.427Z,21.60
2018-07-20T21:05:45.641Z,22.50
2018-07-20T21:08:13.808Z,22.90
2018-07-20T21:10:41.959Z,22.40
2018-07-20T21:13:10.863Z,22.70
2018-07-20T21:15:39.031Z,22.90
2018-07-20T21:18:07.218Z,23.10
2018-07-20T21:20:35.300Z,22.10
2018-07-20T21:23:03.465Z,21.80
2018-07-20T21:25:32.243Z,22.10
2018-07-20T21:28:00.398Z,20.80
2018-07-20T21:30:29.029Z,21.00
2018-07-20T21:32:57.159Z,21.40
2018-07-20T21:35:25.575Z,22.10
2018-07-20T21:37:53.655Z,22.70
2018-07-20T21:40:21.731Z,23.60
2018-07-20T21:42:49.878Z,23.90
2018-07-20T21:45:18.409Z,24.30
2018-07-20T21:47:46.503Z,24.70
2018-07-20T21:50:21.747Z,25.40
2018-07-20T21:52:50.302Z,25.30
2018-07-20T21:55:18.479Z,25.70
2018-07-20T21:57:46.580Z,26.80
2018-07-20T22:00:18.277Z,27.70
2018-07-20T22:02:47.476Z,27.90
2018-07-20T22:05:15.728Z,28.60
2018-07-20T22:07:43.992Z,29.00
2018-07-20T22:10:12.195Z,28.50
2018-07-20T22:12:40.344Z,27.90
2018-07-20T22:15:09.199Z,28.30
2018-07-20T22:17:37.700Z,26.90
2018-07-20T22:20:06.603Z,27.90
2018-07-20T22:22:34.865Z,28.40
2018-07-20T22:25:02.965Z,28.40
2018-07-20T22:27:31.029Z,29.00
2018-07-20T22:29:59.182Z,29.10
2018-07-20T22:32:27.251Z,28.50
2018-07-20T22:34:55.322Z,27.20
2018-07-20T22:37:23.441Z,28.90
2018-07-20T22:39:51.544Z,28.70
2018-07-20T22:42:19.626Z,28.50
2018-07-20T22:44:47.696Z,28.30
2018-07-20T22:47:15.768Z,28.80
2018-07-20T22:49:43.879Z,28.60
2018-07-20T22:52:11.973Z,28.10
2018-07-20T22:54:40.070Z,27.40
2018-07-20T22:57:08.315Z,27.30
2018-07-20T22:59:36.687Z,25.80
2018-07-20T23:02:04.759Z,26.40
2018-07-20T23:04:33.031Z,26.70
2018-07-20T23:07:01.163Z,26.70
2018-07-20T23:09:29.250Z,25.80
2018-07-20T23:11:57.307Z,26.30
2018-07-20T23:14:25.419Z,27.60
2018-07-20T23:16:53.609Z,28.00
2018-07-20T23:19:21.693Z,27.80
2018-07-20T23:21:49.787Z,28.40
2018-07-20T23:24:17.920Z,28.50
2018-07-20T23:26:46.080Z,28.60
2018-07-20T23:29:14.204Z,29.60
2018-07-20T23:31:42.263Z,29.50
2018-07-20T23:34:10.382Z,30.00
2018-07-20T23:36:38.515Z,29.60
2018-07-20T23:39:07.300Z,29.00
2018-07-20T23:41:35.371Z,29.60
2018-07-20T23:44:03.495Z,29.90
2018-07-20T23:46:31.597Z,30.20
2018-07-20T23:48:59.760Z,30.00
2018-07-20T23:51:27.867Z,29.20
2018-07-20T23:53:55.943Z,29.60
2018-07-20T23:56:24.022Z,29.00
2018-07-20T23:58:52.182Z,29.30
